createdAt,value
2023-01-07T00:01:29.101Z,3.83
2023-01-07T00:03:57.715Z,3.86
2023-01-07T00:06:30.399Z,3.85
2023-01-07T00:08:58.261Z,3.81
2023-01-07T00:11:31.598Z,3.83
2023-01-07T00:14:00.222Z,3.84
2023-01-07T00:16:29.688Z,3.82
2023-01-07T00:18:59.108Z,3.82
2023-01-07T00:21:27.603Z,3.85
2023-01-07T00:23:56.788Z,3.82
2023-01-07T00:26:25.691Z,3.87
2023-01-07T00:28:53.775Z,3.87
2023-01-07T00:31:26.408Z,3.92
2023-01-07T00:33:59.439Z,3.91
2023-01-07T00:36:30.691Z,3.96
2023-01-07T00:39:00.643Z,3.96
2023-01-07T00:41:28.461Z,3.96
2023-01-07T00:43:56.354Z,3.95
2023-01-07T00:46:24.019Z,3.92
2023-01-07T00:48:51.513Z,3.93
2023-01-07T00:51:19.632Z,3.91
2023-01-07T00:53:46.966Z,3.96
2023-01-07T00:56:16.315Z,4.01
2023-01-07T00:58:43.422Z,4.01
2023-01-07T01:01:12.054Z,4.02
2023-01-07T01:03:39.431Z,4.05
2023-01-07T01:06:11.181Z,4.04
2023-01-07T01:08:38.183Z,4.05
2023-01-07T01:11:10.180Z,4.06
2023-01-07T01:13:37.762Z,4.07
2023-01-07T01:16:11.182Z,4.11
2023-01-07T01:18:38.899Z,4.13
2023-01-07T01:21:08.381Z,4.10
2023-01-07T01:23:35.220Z,4.08
2023-01-07T01:26:11.381Z,4.09
2023-01-07T01:28:39.029Z,4.14
2023-01-07T01:31:08.378Z,4.12
2023-01-07T01:33:36.145Z,4.14
2023-01-07T01:36:05.657Z,4.17
2023-01-07T01:38:32.460Z,4.13
2023-01-07T01:40:59.804Z,4.13
2023-01-07T01:43:29.306Z,4.14
2023-01-07T01:45:57.390Z,4.15
2023-01-07T01:48:24.683Z,4.18
2023-01-07T01:50:52.490Z,4.15
2023-01-07T01:53:28.826Z,4.14
2023-01-07T01:56:00.970Z,4.15
2023-01-07T01:58:52.178Z,4.16
2023-01-07T02:01:19.250Z,4.21
2023-01-07T02:03:48.948Z,4.20
2023-01-07T02:06:23.166Z,4.25
2023-01-07T02:08:50.803Z,4.27
2023-01-07T02:11:26.411Z,4.32
2023-01-07T02:14:20.719Z,4.29
2023-01-07T02:16:59.639Z,4.32
2023-01-07T02:19:26.755Z,4.30
2023-01-07T02:22:27.717Z,4.30
2023-01-07T02:25:03.625Z,4.32
2023-01-07T02:27:52.185Z,4.31
2023-01-07T02:30:56.921Z,4.33
2023-01-07T02:33:48.225Z,4.37
2023-01-07T02:36:34.030Z,4.39
2023-01-07T02:39:23.921Z,4.38
2023-01-07T02:42:13.843Z,4.41
2023-01-07T02:44:59.627Z,4.42
2023-01-07T02:47:32.070Z,4.44
2023-01-07T02:49:59.029Z,4.47
2023-01-07T02:52:29.492Z,4.42
2023-01-07T02:55:10.663Z,4.39
2023-01-07T03:01:22.901Z,4.40
2023-01-07T03:03:56.044Z,4.41
2023-01-07T03:06:35.193Z,4.46
2023-01-07T03:09:37.897Z,4.46
2023-01-07T03:12:24.671Z,4.48
2023-01-07T03:14:59.183Z,4.48
2023-01-07T03:17:32.663Z,4.48
2023-01-07T03:20:01.542Z,4.54
2023-01-07T03:22:32.045Z,4.54
2023-01-07T03:25:00.038Z,4.57
2023-01-07T03:27:29.164Z,4.57
2023-01-07T03:29:56.985Z,4.57
2023-01-07T03:32:32.465Z,4.57
2023-01-07T03:34:59.773Z,4.58
2023-01-07T03:37:27.836Z,4.61
2023-01-07T03:39:55.429Z,4.63
2023-01-07T03:42:40.515Z,4.68
2023-01-07T03:45:14.618Z,4.73
2023-01-07T03:47:45.701Z,4.78
2023-01-07T03:50:13.637Z,4.83
2023-01-07T03:52:40.585Z,4.86
2023-01-07T03:55:08.232Z,4.89
2023-01-07T03:57:35.143Z,4.93
2023-01-07T04:00:03.650Z,4.94
2023-01-07T04:02:30.553Z,4.94
2023-01-07T04:04:57.737Z,4.93
2023-01-07T04:07:24.656Z,4.93
2023-01-07T04:09:51.796Z,4.91
2023-01-07T04:12:18.772Z,4.90
2023-01-07T04:14:46.121Z,4.95
2023-01-07T04:17:13.029Z,4.95
2023-01-07T04:19:40.237Z,4.93
2023-01-07T04:22:10.321Z,4.92
2023-01-07T04:24:37.821Z,4.94
2023-01-07T04:27:04.963Z,4.94
2023-01-07T04:29:32.249Z,4.95
2023-01-07T04:31:59.214Z,4.99
2023-01-07T04:34:26.395Z,5.01
2023-01-07T04:36:53.256Z,5.02
2023-01-07T04:39:20.399Z,5.03
2023-01-07T04:41:47.272Z,5.05
2023-01-07T04:44:15.586Z,5.05
2023-01-07T04:46:42.457Z,5.06
2023-01-07T04:49:10.059Z,5.06
2023-01-07T04:51:37.007Z,5.06
2023-01-07T04:54:04.252Z,5.05
2023-01-07T04:56:31.209Z,5.04
2023-01-07T04:58:58.423Z,5.03
2023-01-07T05:01:25.669Z,5.04
2023-01-07T05:03:52.964Z,5.03
2023-01-07T05:06:19.868Z,5.03
2023-01-07T05:08:47.092Z,5.00
2023-01-07T05:11:15.627Z,4.98
2023-01-07T05:13:42.771Z,4.96
2023-01-07T05:16:09.668Z,4.94
2023-01-07T05:18:36.880Z,4.89
2023-01-07T05:21:03.850Z,4.85
2023-01-07T05:23:31.089Z,4.82
2023-01-07T05:25:58.072Z,4.79
2023-01-07T05:28:25.239Z,4.77
2023-01-07T05:30:52.108Z,4.73
2023-01-07T05:33:19.323Z,4.70
2023-01-07T05:35:49.058Z,4.62
2023-01-07T05:38:16.296Z,4.58
2023-01-07T05:40:43.259Z,4.55
2023-01-07T05:43:10.450Z,4.52
2023-01-07T05:45:37.448Z,4.50
2023-01-07T05:48:04.921Z,4.48
2023-01-07T05:50:31.876Z,4.43
2023-01-07T05:52:59.043Z,4.44
2023-01-07T05:55:25.926Z,4.38
2023-01-07T05:57:53.079Z,4.32
2023-01-07T06:00:20.016Z,4.32
2023-01-07T06:02:47.473Z,4.29
2023-01-07T06:05:14.492Z,4.28
2023-01-07T06:07:41.675Z,4.27
2023-01-07T06:10:08.749Z,4.24
2023-01-07T06:12:35.998Z,4.23
2023-01-07T06:15:02.991Z,4.24
2023-01-07T06:17:30.192Z,4.22
2023-01-07T06:19:57.061Z,4.25
2023-01-07T06:22:24.431Z,4.25
2023-01-07T06:24:51.410Z,4.25
2023-01-07T06:27:18.637Z,4.25
2023-01-07T06:29:45.513Z,4.26
2023-01-07T06:32:12.727Z,4.26
2023-01-07T06:34:39.666Z,4.23
2023-01-07T06:37:06.845Z,4.25
2023-01-07T06:39:33.697Z,4.26
2023-01-07T06:42:00.901Z,4.28
2023-01-07T06:44:27.818Z,4.29
2023-01-07T06:46:55.316Z,4.30
2023-01-07T06:49:22.184Z,4.29
2023-01-07T06:51:49.394Z,4.28
2023-01-07T06:54:16.268Z,4.29
2023-01-07T06:56:43.576Z,4.27
2023-01-07T06:59:10.968Z,4.28
2023-01-07T07:01:38.489Z,4.30
2023-01-07T07:04:05.520Z,4.32
2023-01-07T07:06:33.075Z,4.33
2023-01-07T07:08:59.904Z,4.32
2023-01-07T07:11:27.168Z,4.36
2023-01-07T07:13:54.106Z,4.34
2023-01-07T07:16:22.677Z,4.37
2023-01-07T07:18:50.244Z,4.41
2023-01-07T07:21:17.446Z,4.43
2023-01-07T07:23:44.378Z,4.46
2023-01-07T07:26:12.049Z,4.46
2023-01-07T07:28:39.469Z,4.45
2023-01-07T07:31:06.715Z,4.48
2023-01-07T07:33:33.631Z,4.50
2023-01-07T07:36:00.920Z,4.54
2023-01-07T07:38:28.110Z,4.60
2023-01-07T07:40:56.878Z,4.65
2023-01-07T07:43:23.842Z,4.69
2023-01-07T07:45:51.061Z,4.72
2023-01-07T07:48:17.968Z,4.76
2023-01-07T07:50:45.174Z,4.77
2023-01-07T07:53:12.111Z,4.79
2023-01-07T07:55:40.050Z,4.79
2023-01-07T07:58:07.138Z,4.81
2023-01-07T08:00:34.314Z,4.82
2023-01-07T08:03:01.444Z,4.83
2023-01-07T08:05:29.288Z,4.88
2023-01-07T08:07:56.863Z,4.93
2023-01-07T08:10:27.216Z,4.95
2023-01-07T08:12:54.156Z,4.99
2023-01-07T08:15:21.483Z,5.03
2023-01-07T08:17:48.496Z,5.04
2023-01-07T08:20:15.783Z,5.07
2023-01-07T08:22:42.703Z,5.06
2023-01-07T08:25:10.486Z,5.08
2023-01-07T08:27:37.324Z,5.14
2023-01-07T08:30:04.895Z,5.18
2023-01-07T08:32:31.776Z,5.19
2023-01-07T08:34:59.055Z,5.25
2023-01-07T08:37:26.001Z,5.24
2023-01-07T08:39:53.235Z,5.25
2023-01-07T08:42:20.183Z,5.29
2023-01-07T08:44:47.387Z,5.37
2023-01-07T08:47:14.745Z,5.41
2023-01-07T08:49:41.973Z,5.42
2023-01-07T08:52:08.805Z,5.39
2023-01-07T08:54:36.004Z,5.44
2023-01-07T08:57:02.899Z,5.47
2023-01-07T08:59:30.184Z,5.53
2023-01-07T09:01:57.169Z,5.60
2023-01-07T09:04:24.412Z,5.67
2023-01-07T09:06:51.369Z,5.79
2023-01-07T09:09:18.604Z,5.93
2023-01-07T09:11:45.486Z,6.06
2023-01-07T09:14:12.736Z,6.18
2023-01-07T09:16:39.656Z,6.32
2023-01-07T09:19:06.873Z,6.48
2023-01-07T09:21:33.759Z,6.60
2023-01-07T09:24:00.994Z,6.75
2023-01-07T09:26:27.893Z,6.86
2023-01-07T09:28:55.073Z,7.06
2023-01-07T09:31:22.678Z,7.23
2023-01-07T09:33:51.579Z,7.30
2023-01-07T09:36:18.463Z,7.38
2023-01-07T09:38:45.652Z,7.47
2023-01-07T09:41:36.602Z,7.54
2023-01-07T09:44:35.167Z,7.58
2023-01-07T09:47:03.644Z,7.60
2023-01-07T09:49:33.251Z,7.63
2023-01-07T09:52:05.659Z,7.59
2023-01-07T09:54:39.633Z,7.66
2023-01-07T09:57:08.941Z,7.77
2023-01-07T09:59:36.191Z,7.87
2023-01-07T10:02:36.252Z,7.92
2023-01-07T10:05:27.187Z,7.95
2023-01-07T10:08:31.482Z,7.95
2023-01-07T10:11:04.227Z,7.85
2023-01-07T10:13:48.969Z,7.74
2023-01-07T10:16:28.458Z,7.61
2023-01-07T10:18:55.279Z,7.37
2023-01-07T10:21:38.774Z,7.33
2023-01-07T10:24:16.084Z,7.28
2023-01-07T10:26:48.412Z,7.29
2023-01-07T10:29:53.936Z,7.26
2023-01-07T10:32:24.452Z,7.23
2023-01-07T10:34:55.762Z,7.16
2023-01-07T10:37:43.652Z,7.11
2023-01-07T10:40:32.393Z,7.07
2023-01-07T10:43:36.460Z,7.04
2023-01-07T10:46:24.773Z,7.00
2023-01-07T10:48:57.846Z,6.98
2023-01-07T10:51:43.517Z,6.92
2023-01-07T10:54:47.100Z,6.87
2023-01-07T10:57:21.963Z,6.82
2023-01-07T10:59:56.364Z,6.78
2023-01-07T11:02:28.570Z,6.72
2023-01-07T11:04:57.150Z,6.62
2023-01-07T11:08:02.427Z,6.54
2023-01-07T11:10:33.829Z,6.41
2023-01-07T11:13:06.803Z,6.35
2023-01-07T11:15:50.100Z,6.33
2023-01-07T11:18:21.992Z,6.31
2023-01-07T11:20:50.222Z,6.42
2023-01-07T11:23:26.431Z,6.38
2023-01-07T11:25:55.477Z,6.44
2023-01-07T11:28:27.299Z,6.50
2023-01-07T11:30:59.989Z,6.64
2023-01-07T11:34:02.206Z,6.76
2023-01-07T11:36:42.470Z,6.94
2023-01-07T11:39:12.055Z,7.10
2023-01-07T11:41:53.046Z,7.16
2023-01-07T11:44:20.396Z,7.18
2023-01-07T11:46:48.166Z,7.15
2023-01-07T11:49:25.191Z,7.11
2023-01-07T11:51:53.175Z,7.14
2023-01-07T11:54:28.429Z,7.17
2023-01-07T11:57:12.340Z,7.24
2023-01-07T11:59:39.296Z,7.29
2023-01-07T12:02:25.292Z,7.33
2023-01-07T12:04:52.264Z,7.39
2023-01-07T12:07:19.787Z,7.41
2023-01-07T12:09:46.916Z,7.45
2023-01-07T12:12:34.327Z,7.52
2023-01-07T12:15:16.971Z,7.58
2023-01-07T12:17:49.079Z,7.62
2023-01-07T12:20:48.961Z,7.59
2023-01-07T12:23:36.540Z,7.64
2023-01-07T12:26:18.223Z,7.94
2023-01-07T12:29:06.597Z,8.20
2023-01-07T12:31:44.378Z,8.15
2023-01-07T12:34:56.708Z,7.97
2023-01-07T12:37:51.456Z,7.83
2023-01-07T12:40:34.736Z,7.76
2023-01-07T12:43:11.240Z,7.74
2023-01-07T12:45:48.044Z,7.72
2023-01-07T12:48:53.823Z,7.55
2023-01-07T12:51:25.814Z,7.39
2023-01-07T12:54:12.960Z,7.22
2023-01-07T12:57:12.283Z,7.14
2023-01-07T12:59:48.215Z,6.93
2023-01-07T13:02:35.744Z,6.98
2023-01-07T13:05:48.656Z,7.11
2023-01-07T13:08:23.587Z,7.58
2023-01-07T13:11:18.611Z,8.28
2023-01-07T13:13:52.399Z,9.05
2023-01-07T13:16:19.352Z,9.61
2023-01-07T13:18:46.531Z,9.97
2023-01-07T13:21:15.396Z,9.87
2023-01-07T13:24:10.867Z,9.49
2023-01-07T13:26:56.051Z,8.98
2023-01-07T13:29:37.909Z,8.58
2023-01-07T13:32:33.596Z,8.22
2023-01-07T13:35:32.809Z,7.85
2023-01-07T13:38:05.609Z,7.61
2023-01-07T13:40:46.444Z,7.42
2023-01-07T13:43:50.972Z,7.20
2023-01-07T13:46:22.452Z,7.13
2023-01-07T13:48:55.022Z,7.02
2023-01-07T13:51:29.844Z,6.88
2023-01-07T13:53:56.932Z,6.77
2023-01-07T13:56:24.200Z,6.68
2023-01-07T13:59:00.746Z,6.62
2023-01-07T14:01:30.112Z,6.54
2023-01-07T14:04:03.563Z,6.37
2023-01-07T14:06:41.928Z,6.27
2023-01-07T14:09:11.081Z,6.18
2023-01-07T14:12:02.967Z,6.11
2023-01-07T14:14:48.119Z,6.05
2023-01-07T14:17:57.223Z,6.01
2023-01-07T14:20:33.266Z,5.98
2023-01-07T14:23:15.662Z,5.93
2023-01-07T14:25:49.061Z,5.78
2023-01-07T14:28:22.769Z,5.70
2023-01-07T14:30:53.550Z,5.63
2023-01-07T14:33:24.206Z,5.58
2023-01-07T14:35:56.349Z,5.48
2023-01-07T14:38:29.562Z,5.36
2023-01-07T14:41:02.599Z,5.28
2023-01-07T14:44:01.158Z,5.16
2023-01-07T14:46:27.996Z,5.07
2023-01-07T14:48:58.175Z,5.00
2023-01-07T14:52:08.023Z,4.86
2023-01-07T14:54:59.718Z,4.67
2023-01-07T14:57:30.464Z,4.55
2023-01-07T15:00:18.465Z,4.46
2023-01-07T15:03:10.220Z,4.32
2023-01-07T15:05:58.726Z,4.16
2023-01-07T15:08:47.586Z,4.04
2023-01-07T15:11:38.687Z,3.89
2023-01-07T15:14:34.741Z,3.82
2023-01-07T15:17:02.446Z,3.74
2023-01-07T15:19:29.727Z,3.66
2023-01-07T15:22:22.749Z,3.53
2023-01-07T15:25:11.455Z,3.41
2023-01-07T15:27:57.177Z,3.30
2023-01-07T15:30:45.634Z,3.23
2023-01-07T15:33:34.308Z,3.21
2023-01-07T15:36:04.612Z,3.19
2023-01-07T15:38:35.726Z,3.13
2023-01-07T15:41:02.990Z,3.09
2023-01-07T15:43:31.789Z,3.02
2023-01-07T15:46:07.577Z,2.86
2023-01-07T15:48:34.758Z,2.77
2023-01-07T15:51:01.619Z,2.69
2023-01-07T15:53:30.211Z,2.62
2023-01-07T15:55:57.175Z,2.56
2023-01-07T15:58:34.450Z,2.46
2023-01-07T16:01:02.727Z,2.43
2023-01-07T16:03:31.211Z,2.41
2023-01-07T16:05:59.833Z,2.40
2023-01-07T16:08:29.007Z,2.42
2023-01-07T16:11:01.964Z,2.43
2023-01-07T16:13:30.507Z,2.46
2023-01-07T16:16:03.327Z,2.45
2023-01-07T16:18:34.239Z,2.45
2023-01-07T16:21:09.273Z,2.44
2023-01-07T16:23:38.619Z,2.48
2023-01-07T16:26:08.452Z,2.50
2023-01-07T16:28:41.584Z,2.54
2023-01-07T16:31:14.063Z,2.58
2023-01-07T16:33:43.192Z,2.50
2023-01-07T16:36:17.885Z,2.44
2023-01-07T16:39:02.103Z,2.45
2023-01-07T16:41:31.467Z,2.49
2023-01-07T16:43:59.969Z,2.50
2023-01-07T16:46:37.216Z,2.51
2023-01-07T16:49:22.826Z,2.49
2023-01-07T16:51:52.527Z,2.47
2023-01-07T16:54:25.490Z,2.45
2023-01-07T16:57:10.708Z,2.46
2023-01-07T16:59:45.893Z,2.42
2023-01-07T17:02:33.935Z,2.38
2023-01-07T17:05:33.840Z,2.33
2023-01-07T17:08:15.009Z,2.29
2023-01-07T17:10:48.018Z,2.25
2023-01-07T17:13:14.846Z,2.22
2023-01-07T17:15:43.471Z,2.17
2023-01-07T17:18:14.724Z,2.24
2023-01-07T17:20:51.358Z,2.34
2023-01-07T17:23:31.921Z,2.40
2023-01-07T17:26:06.439Z,2.42
2023-01-07T17:28:38.983Z,2.45
2023-01-07T17:31:07.098Z,2.50
2023-01-07T17:33:34.128Z,2.48
2023-01-07T17:36:01.297Z,2.49
2023-01-07T17:38:29.036Z,2.45
2023-01-07T17:40:56.601Z,2.40
2023-01-07T17:43:35.075Z,2.35
2023-01-07T17:46:06.248Z,2.29
2023-01-07T17:48:34.860Z,2.22
2023-01-07T17:51:04.572Z,2.11
2023-01-07T17:53:42.613Z,2.00
2023-01-07T17:56:10.095Z,1.91
2023-01-07T17:58:38.875Z,1.81
2023-01-07T18:01:07.397Z,1.72
2023-01-07T18:03:34.540Z,1.70
2023-01-07T18:06:01.961Z,1.59
2023-01-07T18:08:29.051Z,1.61
2023-01-07T18:11:15.140Z,1.58
2023-01-07T18:13:42.340Z,1.55
2023-01-07T18:16:14.546Z,1.44
2023-01-07T18:18:41.528Z,1.35
2023-01-07T18:21:11.469Z,1.28
2023-01-07T18:23:38.716Z,1.22
2023-01-07T18:26:06.754Z,1.19
2023-01-07T18:28:33.700Z,1.17
2023-01-07T18:31:00.956Z,1.15
2023-01-07T18:33:28.635Z,1.10
2023-01-07T18:35:55.887Z,1.04
2023-01-07T18:38:22.761Z,1.02
2023-01-07T18:40:50.041Z,0.97
2023-01-07T18:43:19.216Z,0.93
2023-01-07T18:45:48.277Z,0.87
2023-01-07T18:48:18.231Z,0.80
2023-01-07T18:50:47.985Z,0.72
2023-01-07T18:53:16.007Z,0.61
2023-01-07T18:55:44.025Z,0.56
2023-01-07T18:58:13.933Z,0.50
2023-01-07T19:00:42.103Z,0.43
2023-01-07T19:03:10.928Z,0.38
2023-01-07T19:05:39.051Z,0.29
2023-01-07T19:08:06.184Z,0.30
2023-01-07T19:10:33.464Z,0.26
2023-01-07T19:13:01.135Z,0.26
2023-01-07T19:15:28.398Z,0.23
2023-01-07T19:17:55.891Z,0.29
2023-01-07T19:20:23.135Z,0.39
2023-01-07T19:22:50.045Z,0.48
2023-01-07T19:25:17.228Z,0.53
2023-01-07T19:27:44.118Z,0.61
2023-01-07T19:30:11.908Z,0.65
2023-01-07T19:32:38.842Z,0.74
2023-01-07T19:35:06.473Z,0.80
2023-01-07T19:37:33.374Z,0.81
2023-01-07T19:40:00.571Z,0.80
2023-01-07T19:42:27.498Z,0.77
2023-01-07T19:44:54.646Z,0.77
2023-01-07T19:47:21.754Z,0.75
2023-01-07T19:49:49.033Z,0.70
2023-01-07T19:52:16.044Z,0.62
2023-01-07T19:54:43.684Z,0.56
2023-01-07T19:57:10.727Z,0.52
2023-01-07T19:59:37.909Z,0.49
2023-01-07T20:02:04.991Z,0.45
2023-01-07T20:04:32.236Z,0.43
2023-01-07T20:06:59.207Z,0.37
2023-01-07T20:09:26.598Z,0.44
2023-01-07T20:11:53.448Z,0.55
2023-01-07T20:14:20.655Z,0.60
2023-01-07T20:16:47.568Z,0.59
2023-01-07T20:19:14.830Z,0.64
2023-01-07T20:21:41.882Z,0.61
2023-01-07T20:24:09.415Z,0.61
2023-01-07T20:26:38.314Z,0.67
2023-01-07T20:29:05.615Z,0.76
2023-01-07T20:31:33.155Z,0.85
2023-01-07T20:34:00.838Z,0.92
2023-01-07T20:36:30.589Z,1.01
2023-01-07T20:38:58.344Z,1.04
2023-01-07T20:41:27.264Z,1.03
2023-01-07T20:43:59.916Z,0.90
2023-01-07T20:46:28.488Z,0.80
2023-01-07T20:48:56.460Z,0.74
2023-01-07T20:51:23.952Z,0.80
2023-01-07T20:53:51.387Z,0.89
2023-01-07T20:56:20.993Z,0.97
2023-01-07T20:58:49.359Z,1.08
2023-01-07T21:01:21.813Z,1.15
2023-01-07T21:03:49.969Z,1.24
2023-01-07T21:06:18.809Z,1.33
2023-01-07T21:08:46.725Z,1.37
2023-01-07T21:11:16.135Z,1.45
2023-01-07T21:13:43.577Z,1.50
2023-01-07T21:16:10.733Z,1.50
2023-01-07T21:18:37.957Z,1.51
2023-01-07T21:21:11.067Z,1.40
2023-01-07T21:23:38.710Z,1.32
2023-01-07T21:26:06.978Z,1.18
2023-01-07T21:28:35.682Z,1.10
2023-01-07T21:31:09.198Z,1.03
2023-01-07T21:33:37.890Z,1.00
2023-01-07T21:36:10.005Z,1.03
2023-01-07T21:38:37.463Z,1.12
2023-01-07T21:41:09.180Z,1.18
2023-01-07T21:43:37.082Z,1.22
2023-01-07T21:46:05.886Z,1.23
2023-01-07T21:48:38.044Z,1.20
2023-01-07T21:51:10.858Z,1.17
2023-01-07T21:53:38.193Z,1.16
2023-01-07T21:56:10.150Z,1.15
2023-01-07T21:58:38.337Z,1.11
2023-01-07T22:01:06.789Z,1.09
2023-01-07T22:03:35.600Z,1.06
2023-01-07T22:06:07.222Z,1.04
2023-01-07T22:08:35.532Z,1.05
2023-01-07T22:11:02.641Z,1.04
2023-01-07T22:13:29.726Z,1.06
2023-01-07T22:15:56.607Z,1.06
2023-01-07T22:18:23.938Z,1.09
2023-01-07T22:20:55.781Z,1.08
2023-01-07T22:23:23.247Z,1.10
2023-01-07T22:25:50.216Z,1.12
2023-01-07T22:28:19.463Z,1.14
2023-01-07T22:30:52.581Z,1.18
2023-01-07T22:33:19.929Z,1.22
2023-01-07T22:35:48.130Z,1.24
2023-01-07T22:38:17.152Z,1.29
2023-01-07T22:40:44.046Z,1.33
2023-01-07T22:43:14.811Z,1.34
2023-01-07T22:45:59.011Z,1.26
2023-01-07T22:48:32.302Z,1.19
2023-01-07T22:51:05.530Z,1.15
2023-01-07T22:53:33.116Z,1.15
2023-01-07T22:56:00.755Z,1.16
2023-01-07T22:58:27.990Z,1.18
2023-01-07T23:01:07.285Z,1.21
2023-01-07T23:03:34.734Z,1.24
2023-01-07T23:06:01.807Z,1.27
2023-01-07T23:08:29.356Z,1.28
2023-01-07T23:10:56.280Z,1.31
2023-01-07T23:13:24.036Z,1.33
2023-01-07T23:15:50.909Z,1.34
2023-01-07T23:18:18.169Z,1.36
2023-01-07T23:20:45.036Z,1.34
2023-01-07T23:23:12.466Z,1.33
2023-01-07T23:25:47.422Z,1.33
2023-01-07T23:28:16.840Z,1.33
2023-01-07T23:30:44.087Z,1.28
2023-01-07T23:33:11.565Z,1.34
2023-01-07T23:35:38.526Z,1.36
2023-01-07T23:38:06.079Z,1.38
2023-01-07T23:40:33.054Z,1.41
2023-01-07T23:43:00.268Z,1.40
2023-01-07T23:45:27.129Z,1.43
2023-01-07T23:47:54.333Z,1.47
2023-01-07T23:50:21.218Z,1.48
2023-01-07T23:52:48.423Z,1.53
2023-01-07T23:55:15.334Z,1.54
2023-01-07T23:57:42.523Z,1.55
